Time;durP1;ratioP1;P1;durP2;ratioP2;P2;SDS_P1;SDS_P2;PMS_P1;PMS_P2;Temp;Humidity;BMP_temperature;BMP_pressure;BME280_temperature;BME280_humidity;BME280_pressure;Samples;Min_cycle;Max_cycle;Signal;HPM_P1;HPM_P2
2023/04/14 00:01:43;;;;;;;;;2.00;2.00;;;;;-147.17;100.00;-2515.66;4964931;28;51224;-51
2023/04/14 00:04:08;;;;;;;;;1.00;1.00;;;;;-147.17;100.00;-3509.84;4973892;28;52366;-53
2023/04/14 00:06:34;;;;;;;;;2.00;2.00;;;;;-147.17;100.00;-4006.88;4971240;28;51066;-52
2023/04/14 00:09:00;;;;;;;;;3.00;3.00;;;;;-147.17;100.00;-4752.25;4973344;28;50907;-53
2023/04/14 00:11:26;;;;;;;;;1.00;1.00;;;;;-147.17;100.00;-4503.81;4972862;28;51098;-51
2023/04/14 00:13:51;;;;;;;;;1.00;1.00;;;;;-147.17;100.00;-5745.88;4972605;28;51830;-52
2023/04/14 00:16:16;;;;;;;;;0.00;0.00;;;;;-147.17;100.00;-6242.59;4973784;28;51172;-52
2023/04/14 00:18:42;;;;;;;;;1.00;1.00;;;;;-147.17;100.00;-6739.25;4984625;28;51390;-51
2023/04/14 00:21:07;;;;;;;;;1.00;1.00;;;;;-147.17;100.00;-7235.84;4961056;28;51394;-52
2023/04/14 00:23:32;;;;;;;;;1.00;1.00;;;;;-147.17;100.00;-7732.34;4969193;28;52431;-51
2023/04/14 00:25:58;;;;;;;;;1.00;1.00;;;;;-147.17;100.00;-7235.84;4973532;28;51096;-51
2023/04/14 00:28:23;;;;;;;;;1.00;1.00;;;;;-147.17;100.00;-7235.84;4965149;28;51753;-54
2023/04/14 00:30:48;;;;;;;;;1.00;1.00;;;;;-147.17;100.00;-7732.34;4962777;28;51116;-53
2023/04/14 00:33:14;;;;;;;;;1.00;1.00;;;;;-147.17;100.00;-8477.03;4969346;28;51620;-51
2023/04/14 00:35:39;;;;;;;;;1.25;1.25;;;;;-147.17;100.00;-8725.22;4973412;28;51205;-52
2023/04/14 00:38:05;;;;;;;;;1.00;1.00;;;;;-147.17;100.00;-8973.38;4974165;28;51319;-52
2023/04/14 00:40:30;;;;;;;;;1.00;1.00;;;;;-147.17;100.00;-9717.81;4971681;28;51161;-51
2023/04/14 00:42:55;;;;;;;;;1.50;1.00;;;;;-147.17;100.00;-10214.00;4972466;28;51171;-53
2023/04/14 00:45:21;;;;;;;;;1.00;1.00;;;;;-147.17;100.00;-10710.16;4970851;28;51114;-52
2023/04/14 00:47:49;;;;;;;;;0.75;0.75;;;;;-147.17;100.00;-11454.25;4974063;28;51212;-54
2023/04/14 00:50:17;;;;;;;;;1.00;0.75;;;;;-147.17;100.00;-11454.25;4971314;28;51280;-53
2023/04/14 00:52:46;;;;;;;;;1.75;1.75;;;;;-147.17;100.00;-11206.22;4968172;28;51388;-52
2023/04/14 00:55:11;;;;;;;;;3.00;2.00;;;;;-147.17;100.00;-11454.25;4973792;28;51033;-55
2023/04/14 00:57:38;;;;;;;;;1.75;1.75;;;;;-147.17;100.00;-11950.22;4972501;28;51126;-52
2023/04/14 01:00:04;;;;;;;;;1.00;1.00;;;;;-147.17;100.00;-11950.22;4972429;28;51324;-51
2023/04/14 01:02:30;;;;;;;;;1.50;1.00;;;;;-147.17;100.00;-12198.19;4971173;28;51733;-52
2023/04/14 01:04:56;;;;;;;;;2.00;2.00;;;;;-147.17;100.00;-12941.97;4961909;28;51368;-51
2023/04/14 01:07:23;;;;;;;;;2.00;2.00;;;;;-147.17;100.00;-13189.88;4969180;28;51128;-52
2023/04/14 01:09:50;;;;;;;;;3.00;1.00;;;;;-147.17;100.00;-13685.63;4968213;28;51176;-53
2023/04/14 01:12:22;;;;;;;;;2.00;2.00;;;;;-147.17;100.00;-13933.50;4971577;28;51282;-49
2023/04/14 01:14:58;;;;;;;;;1.25;1.25;;;;;-147.17;100.00;-14181.31;4972325;28;51155;-51
2023/04/14 01:17:33;;;;;;;;;2.00;1.75;;;;;-147.17;100.00;-14181.31;4971493;28;51439;-51
2023/04/14 01:20:32;;;;;;;;;1.75;1.25;;;;;-147.17;100.00;-14676.94;4972826;28;50998;-50
2023/04/14 01:23:01;;;;;;;;;3.00;2.75;;;;;-147.17;100.00;-14924.75;4961683;28;52173;-50
2023/04/14 01:25:51;;;;;;;;;1.00;1.00;;;;;-147.17;100.00;-14924.75;4969809;28;51160;-50
2023/04/14 01:28:35;;;;;;;;;2.00;2.00;;;;;-147.17;100.00;-14924.75;4963897;28;51155;-51
2023/04/14 01:31:22;;;;;;;;;1.00;1.00;;;;;-147.17;100.00;-14924.75;4971660;28;52984;-51
2023/04/14 01:33:57;;;;;;;;;2.00;1.00;;;;;-147.17;100.00;-15420.25;4972644;28;51009;-51
2023/04/14 01:36:32;;;;;;;;;2.25;2.25;;;;;-147.17;100.00;-15420.25;4971481;28;50957;-51
2023/04/14 01:39:02;;;;;;;;;2.00;1.25;;;;;-147.17;100.00;-15668.00;4970875;28;51194;-51
2023/04/14 01:41:28;;;;;;;;;1.00;1.00;;;;;-147.17;100.00;-15915.72;4961598;28;51066;-49
2023/04/14 01:43:56;;;;;;;;;1.75;1.75;;;;;-147.17;100.00;-15915.72;4969027;28;51125;-51
2023/04/14 01:46:21;;;;;;;;;2.00;2.00;;;;;-147.17;100.00;-15915.72;4972275;28;51156;-50
2023/04/14 01:48:48;;;;;;;;;1.75;1.75;;;;;-147.17;100.00;-15917.19;4962662;28;51246;-49
2023/04/14 01:51:17;;;;;;;;;1.00;1.00;;;;;-147.17;100.00;-15917.19;4962627;28;51053;-51
2023/04/14 01:53:45;;;;;;;;;2.00;1.75;;;;;-147.17;100.00;-15917.19;4971132;28;51922;-51
2023/04/14 01:56:13;;;;;;;;;1.75;1.75;;;;;-147.17;100.00;-15917.19;4976175;28;50999;-50
2023/04/14 01:58:41;;;;;;;;;2.25;2.00;;;;;-147.17;100.00;-15917.19;4967800;28;51095;-50
2023/04/14 02:01:07;;;;;;;;;2.75;1.75;;;;;-147.17;100.00;-15917.19;4972072;28;51184;-52
2023/04/14 02:03:33;;;;;;;;;3.00;2.00;;;;;-147.17;100.00;-15917.19;4971042;28;52062;-51
2023/04/14 02:06:03;;;;;;;;;1.50;1.50;;;;;-147.17;100.00;-15917.19;4963245;28;51074;-52
2023/04/14 02:08:31;;;;;;;;;4.00;4.00;;;;;-147.17;100.00;-15917.19;4960413;28;50932;-52
2023/04/14 02:10:59;;;;;;;;;3.75;3.75;;;;;-147.17;100.00;-15917.19;4972109;28;51191;-52
2023/04/14 02:13:27;;;;;;;;;4.75;4.75;;;;;-147.17;100.00;-15917.19;4967822;28;52487;-53
2023/04/14 02:15:54;;;;;;;;;5.00;4.00;;;;;-147.17;100.00;-15917.19;4966210;28;51237;-51
2023/04/14 02:18:21;;;;;;;;;4.50;4.00;;;;;-147.17;100.00;-15917.19;4964387;28;50973;-51
2023/04/14 02:20:48;;;;;;;;;3.75;3.00;;;;;-147.17;100.00;-15917.19;4969296;28;51289;-52
2023/04/14 02:23:14;;;;;;;;;7.50;5.25;;;;;-147.17;100.00;-15917.19;4965994;28;52106;-50
2023/04/14 02:25:50;;;;;;;;;7.00;5.00;;;;;-147.17;100.00;-15917.19;4969953;28;51979;-50
2023/04/14 02:28:20;;;;;;;;;4.75;4.00;;;;;-147.17;100.00;-15917.19;4973873;28;51030;-54
2023/04/14 02:30:49;;;;;;;;;3.00;3.00;;;;;-147.17;100.00;-15917.19;4974515;28;51343;-51
2023/04/14 02:33:18;;;;;;;;;6.50;5.25;;;;;-147.17;100.00;-15917.19;4973736;28;51744;-51
2023/04/14 02:35:47;;;;;;;;;7.25;7.25;;;;;-147.17;100.00;-15917.19;4968697;28;51236;-49
2023/04/14 02:38:21;;;;;;;;;4.00;4.00;;;;;-147.17;100.00;-15917.19;4967171;28;51137;-50
2023/04/14 02:40:47;;;;;;;;;4.00;3.00;;;;;-147.17;100.00;-15917.19;4972466;28;51028;-49
2023/04/14 02:43:18;;;;;;;;;4.00;3.75;;;;;-147.17;100.00;-15917.19;4966005;28;52188;-50
2023/04/14 02:45:49;;;;;;;;;8.00;7.00;;;;;-147.17;100.00;-15917.19;4960464;28;51096;-52
2023/04/14 02:48:17;;;;;;;;;5.25;5.25;;;;;-147.17;100.00;-15917.19;4972108;28;51314;-53
2023/04/14 02:50:46;;;;;;;;;5.25;5.25;;;;;-147.17;100.00;-15917.19;4968760;28;50874;-53
2023/04/14 02:53:17;;;;;;;;;6.25;5.25;;;;;-147.17;100.00;-15917.19;4972754;28;51781;-52
2023/04/14 02:55:45;;;;;;;;;5.25;5.25;;;;;-147.17;100.00;-15917.19;4976035;28;51156;-50
2023/04/14 02:58:11;;;;;;;;;4.25;4.25;;;;;-147.17;100.00;-15917.19;4974882;28;51868;-53
2023/04/14 03:00:42;;;;;;;;;4.00;4.00;;;;;-147.17;100.00;-15917.19;4974386;28;51283;-54
2023/04/14 03:03:09;;;;;;;;;4.25;4.00;;;;;-147.17;100.00;-15917.19;4972783;28;51256;-53
2023/04/14 03:05:35;;;;;;;;;4.00;4.00;;;;;-147.17;100.00;-15917.19;4972787;28;51262;-54
2023/04/14 03:08:02;;;;;;;;;3.50;3.50;;;;;-147.17;100.00;-15917.19;4975093;28;51286;-53
2023/04/14 03:10:28;;;;;;;;;3.25;3.00;;;;;-147.17;100.00;-15917.19;4968246;28;51334;-54
2023/04/14 03:12:54;;;;;;;;;4.75;4.25;;;;;-147.17;100.00;-15917.19;4968454;28;51275;-52
2023/04/14 03:15:21;;;;;;;;;3.50;2.00;;;;;-147.17;100.00;-15917.19;4967986;28;51075;-54
2023/04/14 03:17:52;;;;;;;;;4.25;4.25;;;;;-147.17;100.00;-15917.19;4969347;28;51197;-54
2023/04/14 03:20:20;;;;;;;;;4.00;3.00;;;;;-147.17;100.00;-15917.19;4969675;28;51700;-50
2023/04/14 03:22:56;;;;;;;;;3.00;3.00;;;;;-147.17;100.00;-15917.19;4964957;28;51864;-52
2023/04/14 03:25:22;;;;;;;;;3.50;3.00;;;;;-147.17;100.00;-15917.19;4964859;28;51026;-51
2023/04/14 03:27:50;;;;;;;;;6.75;6.75;;;;;-147.17;100.00;-15917.19;4973740;28;51171;-52
2023/04/14 03:30:16;;;;;;;;;6.00;6.00;;;;;-147.17;100.00;-15917.19;4973456;28;50950;-51
2023/04/14 03:32:45;;;;;;;;;4.00;4.00;;;;;-147.17;100.00;-15917.19;4958527;28;52178;-51
2023/04/14 03:35:14;;;;;;;;;3.00;3.00;;;;;-147.17;100.00;-15917.19;4974291;28;51097;-53
2023/04/14 03:37:41;;;;;;;;;3.25;3.25;;;;;-147.17;100.00;-15917.19;4964356;28;51181;-52
2023/04/14 03:40:07;;;;;;;;;7.75;5.25;;;;;-147.17;100.00;-15917.19;4971400;28;52965;-52
2023/04/14 03:42:35;;;;;;;;;3.75;3.75;;;;;-147.17;100.00;-15917.19;4970464;28;51206;-54
2023/04/14 03:45:02;;;;;;;;;4.00;4.00;;;;;-147.17;100.00;-15917.19;4973857;28;51314;-53
2023/04/14 03:47:30;;;;;;;;;4.25;4.25;;;;;-147.17;100.00;-15917.19;4974227;28;51027;-53
2023/04/14 03:50:01;;;;;;;;;3.50;3.50;;;;;-147.17;100.00;-15917.19;4973664;28;51287;-52
2023/04/14 03:52:30;;;;;;;;;3.25;3.25;;;;;-147.17;100.00;-15917.19;4971340;28;51192;-52
2023/04/14 03:54:59;;;;;;;;;3.00;2.75;;;;;-147.17;100.00;-15917.19;4977822;28;51193;-51
2023/04/14 03:57:28;;;;;;;;;2.75;2.75;;;;;-147.17;100.00;-15917.19;4963325;28;51201;-52
2023/04/14 03:59:54;;;;;;;;;2.50;2.50;;;;;-147.17;100.00;-15917.19;4966808;28;51467;-50
2023/04/14 04:02:21;;;;;;;;;4.25;4.25;;;;;-147.17;100.00;-15917.19;4967502;28;51728;-51
2023/04/14 04:04:48;;;;;;;;;3.00;3.00;;;;;-147.17;100.00;-15917.19;4971010;28;51006;-51
2023/04/14 04:07:16;;;;;;;;;3.00;3.00;;;;;-147.17;100.00;-15917.19;4972722;28;51201;-53
2023/04/14 04:09:42;;;;;;;;;6.00;4.50;;;;;-147.17;100.00;-15917.19;4951040;28;51292;-52
2023/04/14 04:12:10;;;;;;;;;5.50;4.00;;;;;-147.17;100.00;-15917.19;4968350;28;51824;-51
2023/04/14 04:14:39;;;;;;;;;4.50;3.25;;;;;-147.17;100.00;-15917.19;4973246;28;50908;-52
2023/04/14 04:17:06;;;;;;;;;5.75;5.75;;;;;-147.17;100.00;-15917.19;4972433;28;51057;-52
2023/04/14 04:19:34;;;;;;;;;7.50;7.50;;;;;-147.17;100.00;-15917.19;4972995;28;51349;-54
2023/04/14 04:22:01;;;;;;;;;6.50;5.25;;;;;-147.17;100.00;-15917.19;4972649;28;51860;-52
2023/04/14 04:24:30;;;;;;;;;6.00;4.00;;;;;-147.17;100.00;-15917.19;4973212;28;50943;-52
2023/04/14 04:26:57;;;;;;;;;3.00;3.00;;;;;-147.17;100.00;-15917.19;4973025;28;51034;-51
2023/04/14 04:29:23;;;;;;;;;4.00;4.00;;;;;-147.17;100.00;-15917.19;4971138;28;51073;-51
2023/04/14 04:31:48;;;;;;;;;4.00;4.00;;;;;-147.17;100.00;-15917.19;4972035;28;51049;-51
2023/04/14 04:34:15;;;;;;;;;3.25;3.25;;;;;-147.17;100.00;-15917.19;4967625;28;51067;-51
2023/04/14 04:36:42;;;;;;;;;5.25;5.25;;;;;-147.17;100.00;-15917.19;4967782;28;51200;-51
2023/04/14 04:39:07;;;;;;;;;6.00;4.00;;;;;-147.17;100.00;-15917.19;4973012;28;51366;-51
2023/04/14 04:41:33;;;;;;;;;3.00;3.00;;;;;-147.17;100.00;-15917.19;4972662;28;51257;-52
2023/04/14 04:43:58;;;;;;;;;4.00;4.00;;;;;-147.17;100.00;-15917.19;4965564;28;51210;-53
2023/04/14 04:46:32;;;;;;;;;5.50;4.75;;;;;-147.17;100.00;-15917.19;4967805;28;51187;-54
2023/04/14 04:48:57;;;;;;;;;6.75;5.00;;;;;-147.17;100.00;-15917.19;4971800;28;51149;-54
2023/04/14 04:51:23;;;;;;;;;6.50;6.00;;;;;-147.17;100.00;-15917.19;4960112;28;52223;-52
2023/04/14 04:53:48;;;;;;;;;5.50;5.50;;;;;-147.17;100.00;-15917.19;4963613;28;50999;-52
2023/04/14 04:56:13;;;;;;;;;9.00;8.00;;;;;-147.17;100.00;-15917.19;4968943;28;51243;-53
2023/04/14 04:58:39;;;;;;;;;5.00;5.00;;;;;-147.17;100.00;-15917.19;4971341;28;51462;-53
2023/04/14 05:01:08;;;;;;;;;4.75;4.75;;;;;-147.17;100.00;-15917.19;4972362;28;52943;-54
2023/04/14 05:03:34;;;;;;;;;5.75;5.25;;;;;-147.17;100.00;-15917.19;4962037;28;51172;-52
2023/04/14 05:05:59;;;;;;;;;4.50;4.50;;;;;-147.17;100.00;-15917.19;4964322;28;51211;-54
2023/04/14 05:08:25;;;;;;;;;5.00;5.00;;;;;-147.17;100.00;-15917.19;4972483;28;51505;-51
2023/04/14 05:10:50;;;;;;;;;6.00;6.00;;;;;-147.17;100.00;-15917.19;4971658;28;51676;-52
2023/04/14 05:13:15;;;;;;;;;7.00;7.00;;;;;-147.17;100.00;-15917.19;4966167;28;51319;-57
2023/04/14 05:15:41;;;;;;;;;6.50;6.50;;;;;-147.17;100.00;-15917.19;4967960;28;50915;-54
2023/04/14 05:18:06;;;;;;;;;7.00;6.75;;;;;-147.17;100.00;-15917.19;4970274;28;51049;-54
2023/04/14 05:20:32;;;;;;;;;6.75;6.50;;;;;-147.17;100.00;-15917.19;4968975;28;51184;-52
2023/04/14 05:22:57;;;;;;;;;5.50;5.50;;;;;-147.17;100.00;-15917.19;4958471;28;51066;-54
2023/04/14 05:25:22;;;;;;;;;7.00;7.00;;;;;-147.17;100.00;-15917.19;4962952;28;51113;-55
2023/04/14 05:27:48;;;;;;;;;7.75;7.75;;;;;-147.17;100.00;-15917.19;4970632;28;51138;-55
2023/04/14 05:30:13;;;;;;;;;6.00;6.00;;;;;-147.17;100.00;-15917.19;4972743;28;52062;-53
2023/04/14 05:32:38;;;;;;;;;4.00;4.00;;;;;-147.17;100.00;-15917.19;4971143;28;50974;-54
2023/04/14 05:35:04;;;;;;;;;7.25;7.00;;;;;-147.17;100.00;-15917.19;4971331;28;51177;-50
2023/04/14 05:37:29;;;;;;;;;5.00;5.00;;;;;-147.17;100.00;-15917.19;4970049;28;51409;-52
2023/04/14 05:39:55;;;;;;;;;6.00;6.00;;;;;-147.17;100.00;-15917.19;4971339;28;53079;-54
2023/04/14 05:42:20;;;;;;;;;6.75;6.00;;;;;-147.17;100.00;-15917.19;4964203;28;51081;-54
2023/04/14 05:44:46;;;;;;;;;8.50;8.25;;;;;-147.17;100.00;-15917.19;4971014;28;51218;-53
2023/04/14 05:47:14;;;;;;;;;8.75;7.75;;;;;-147.17;100.00;-15917.19;4971208;28;51013;-54
2023/04/14 05:49:39;;;;;;;;;8.25;8.25;;;;;-147.17;100.00;-15917.19;4969308;28;51755;-54
2023/04/14 05:52:05;;;;;;;;;8.25;7.75;;;;;-147.17;100.00;-15917.19;4964800;28;52077;-54
2023/04/14 05:54:30;;;;;;;;;8.00;8.00;;;;;-147.17;100.00;-15917.19;4973507;28;51017;-52
2023/04/14 05:56:56;;;;;;;;;8.25;7.00;;;;;-147.17;100.00;-15917.19;4978246;28;51099;-51
2023/04/14 05:59:22;;;;;;;;;9.00;8.00;;;;;-147.17;100.00;-15917.19;4970942;28;51040;-51
2023/04/14 06:01:47;;;;;;;;;9.00;8.00;;;;;-147.17;100.00;-15917.19;4968565;28;51042;-51
2023/04/14 06:04:12;;;;;;;;;11.00;10.00;;;;;-147.17;100.00;-15917.19;4971089;28;51505;-52
2023/04/14 06:06:38;;;;;;;;;9.50;8.50;;;;;-147.17;100.00;-15917.19;4967343;28;51155;-54
2023/04/14 06:09:03;;;;;;;;;9.00;9.00;;;;;-147.17;100.00;-15917.19;4970387;28;51831;-51
2023/04/14 06:11:28;;;;;;;;;8.25;7.25;;;;;-147.17;100.00;-15917.19;4960035;28;51216;-51
2023/04/14 06:13:54;;;;;;;;;10.25;8.75;;;;;-147.17;100.00;-15917.19;4971506;28;51027;-54
2023/04/14 06:16:19;;;;;;;;;13.00;12.25;;;;;-147.17;100.00;-15917.19;4966498;28;51113;-51
2023/04/14 06:18:44;;;;;;;;;9.00;9.00;;;;;-147.17;100.00;-15917.19;4971313;28;51190;-51
2023/04/14 06:21:10;;;;;;;;;12.00;12.00;;;;;-147.17;100.00;-15917.19;4966617;28;51235;-51
2023/04/14 06:23:36;;;;;;;;;12.00;11.75;;;;;-147.17;100.00;-15917.19;4969748;28;51205;-53
2023/04/14 06:26:04;;;;;;;;;8.50;8.25;;;;;-147.17;100.00;-15917.19;4970776;28;51110;-51
2023/04/14 06:28:29;;;;;;;;;11.00;8.75;;;;;-147.17;100.00;-15917.19;4969218;28;53017;-51
2023/04/14 06:30:55;;;;;;;;;10.00;9.75;;;;;-147.17;100.00;-15917.19;4969654;28;51287;-54
2023/04/14 06:33:20;;;;;;;;;11.00;11.00;;;;;-147.17;100.00;-15917.19;4965916;28;51717;-54
2023/04/14 06:35:45;;;;;;;;;12.00;10.75;;;;;-147.17;100.00;-15917.19;4970659;28;51099;-52
2023/04/14 06:38:11;;;;;;;;;11.75;11.75;;;;;-147.17;100.00;-15917.19;4959793;28;51274;-51
2023/04/14 06:40:36;;;;;;;;;10.75;10.75;;;;;-147.17;100.00;-15917.19;4968356;28;51024;-53
2023/04/14 06:43:01;;;;;;;;;13.00;13.00;;;;;-147.17;100.00;-15917.19;4964151;28;51360;-53
2023/04/14 06:45:27;;;;;;;;;8.25;7.00;;;;;-147.17;100.00;-15917.19;4960670;28;51442;-54
2023/04/14 06:47:52;;;;;;;;;11.75;11.00;;;;;-147.17;100.00;-15917.19;4969500;28;51129;-52
2023/04/14 06:50:18;;;;;;;;;13.25;13.25;;;;;-147.17;100.00;-15917.19;4972891;28;51293;-54
2023/04/14 06:52:44;;;;;;;;;14.00;13.75;;;;;-147.17;100.00;-15917.19;4968239;28;51213;-51
2023/04/14 06:55:09;;;;;;;;;15.50;15.50;;;;;-147.17;100.00;-15917.19;4967397;28;51397;-53
2023/04/14 06:57:34;;;;;;;;;15.25;14.25;;;;;-147.17;100.00;-15917.19;4966223;28;52062;-53
2023/04/14 07:00:00;;;;;;;;;14.00;13.75;;;;;-147.17;100.00;-15917.19;4969506;28;51228;-53
2023/04/14 07:02:27;;;;;;;;;12.25;12.25;;;;;-147.17;100.00;-15917.19;4972314;28;51353;-52
2023/04/14 07:04:52;;;;;;;;;13.50;13.25;;;;;-147.17;100.00;-15917.19;4968698;28;51033;-52
2023/04/14 07:07:18;;;;;;;;;11.25;10.00;;;;;-147.17;100.00;-15917.19;4969053;28;52458;-52
2023/04/14 07:09:43;;;;;;;;;14.00;13.75;;;;;-147.17;100.00;-15917.19;4971396;28;51142;-52
2023/04/14 07:12:15;;;;;;;;;10.00;10.00;;;;;-147.17;100.00;-15917.19;4967859;28;51119;-52
2023/04/14 07:14:41;;;;;;;;;15.00;15.00;;;;;-147.17;100.00;-15917.19;4958353;28;51189;-50
2023/04/14 07:17:07;;;;;;;;;14.00;12.75;;;;;-147.17;100.00;-15917.19;4959064;28;52204;-51
2023/04/14 07:19:32;;;;;;;;;13.00;12.25;;;;;-147.17;100.00;-15917.19;4967274;28;51188;-53
2023/04/14 07:21:57;;;;;;;;;14.50;13.50;;;;;-147.17;100.00;-15917.19;4980934;28;51084;-53
2023/04/14 07:24:23;;;;;;;;;11.00;10.25;;;;;-147.17;100.00;-15917.19;4972691;28;51070;-53
2023/04/14 07:26:48;;;;;;;;;11.75;11.25;;;;;-147.17;100.00;-15917.19;4974050;28;51070;-54
2023/04/14 07:29:14;;;;;;;;;15.25;13.00;;;;;-147.17;100.00;-15917.19;4973647;28;51228;-52
2023/04/14 07:31:39;;;;;;;;;15.50;12.00;;;;;-147.17;100.00;-15917.19;4972631;28;51052;-54
2023/04/14 07:34:05;;;;;;;;;12.00;11.75;;;;;-147.17;100.00;-15917.19;4978456;28;51379;-53
2023/04/14 07:36:31;;;;;;;;;13.75;13.00;;;;;-147.17;100.00;-15917.19;4962072;28;52831;-53
2023/04/14 07:38:57;;;;;;;;;13.75;12.75;;;;;-147.17;100.00;-15917.19;4969512;28;51240;-52
2023/04/14 07:41:23;;;;;;;;;10.00;10.00;;;;;-147.17;100.00;-15917.19;4968886;28;51520;-53
2023/04/14 07:43:49;;;;;;;;;11.50;10.50;;;;;-147.17;100.00;-15917.19;4973684;28;51359;-51
2023/04/14 07:46:14;;;;;;;;;10.75;10.75;;;;;-147.17;100.00;-15917.19;4965071;28;51143;-52
2023/04/14 07:48:40;;;;;;;;;11.25;10.25;;;;;-147.17;100.00;-15917.19;4964068;28;51121;-54
2023/04/14 07:51:06;;;;;;;;;11.75;11.00;;;;;-147.17;100.00;-15917.19;4955960;28;51305;-53
2023/04/14 07:53:32;;;;;;;;;6.25;6.25;;;;;-147.17;100.00;-15917.19;4971661;28;51250;-54
2023/04/14 07:55:58;;;;;;;;;13.25;11.00;;;;;-147.17;100.00;-15917.19;4972269;28;51067;-54
2023/04/14 07:58:24;;;;;;;;;8.75;8.00;;;;;-147.17;100.00;-15917.19;4972557;28;51180;-54
2023/04/14 08:00:49;;;;;;;;;12.25;12.25;;;;;-147.17;100.00;-15917.19;4973607;28;50891;-54
2023/04/14 08:03:15;;;;;;;;;10.75;10.00;;;;;-147.17;100.00;-15917.19;4967640;28;51247;-55
2023/04/14 08:05:43;;;;;;;;;8.75;8.75;;;;;-147.17;100.00;-15917.19;4969553;28;52124;-58
2023/04/14 08:08:12;;;;;;;;;9.25;9.25;;;;;-147.17;100.00;-15917.19;4965065;28;51250;-52
2023/04/14 08:10:38;;;;;;;;;12.50;11.50;;;;;-147.17;100.00;-15917.19;4970553;28;51220;-53
2023/04/14 08:13:03;;;;;;;;;5.00;5.00;;;;;-147.17;100.00;-15917.19;4973469;28;51031;-54
2023/04/14 08:15:28;;;;;;;;;11.00;9.50;;;;;-147.17;100.00;-15917.19;4968392;28;52412;-54
2023/04/14 08:17:54;;;;;;;;;10.00;9.00;;;;;-147.17;100.00;-15917.19;4969119;28;51038;-51
2023/04/14 08:20:19;;;;;;;;;11.00;11.00;;;;;-147.17;100.00;-15917.19;4967835;28;51273;-54
2023/04/14 08:22:45;;;;;;;;;10.25;10.00;;;;;-147.17;100.00;-15917.19;4971428;28;51147;-52
2023/04/14 08:25:11;;;;;;;;;11.00;10.75;;;;;-147.17;100.00;-15917.19;4973840;28;52914;-54
2023/04/14 08:27:37;;;;;;;;;8.25;8.00;;;;;-147.17;100.00;-15917.19;4974304;28;51033;-52
2023/04/14 08:30:03;;;;;;;;;8.75;8.00;;;;;-147.17;100.00;-15917.19;4972061;28;51033;-52
2023/04/14 08:32:29;;;;;;;;;8.25;8.25;;;;;-147.17;100.00;-15917.19;4972877;28;51046;-53
2023/04/14 08:34:54;;;;;;;;;10.00;8.00;;;;;-147.17;100.00;-15917.19;4972853;28;51243;-54
2023/04/14 08:37:21;;;;;;;;;5.75;5.00;;;;;-147.17;100.00;-15917.19;4972604;28;51006;-55
2023/04/14 08:39:47;;;;;;;;;8.00;6.50;;;;;-147.17;100.00;-15917.19;4973998;28;51112;-55
2023/04/14 08:42:15;;;;;;;;;9.25;8.50;;;;;-147.17;100.00;-15917.19;4963086;28;51182;-52
2023/04/14 08:44:40;;;;;;;;;9.00;8.25;;;;;-147.17;100.00;-15917.19;4968136;28;52104;-54
2023/04/14 08:47:06;;;;;;;;;7.75;7.25;;;;;-147.17;100.00;-15917.19;4969562;28;50950;-52
2023/04/14 08:49:45;;;;;;;;;8.25;8.25;;;;;-147.17;100.00;-15917.19;4958839;28;51073;-53
2023/04/14 08:52:11;;;;;;;;;6.25;6.25;;;;;-147.17;100.00;-15917.19;4967621;28;51158;-55
2023/04/14 08:54:41;;;;;;;;;8.75;8.00;;;;;-147.17;100.00;-15917.19;4962320;28;53508;-55
2023/04/14 08:57:16;;;;;;;;;8.00;8.00;;;;;-147.17;100.00;-15917.19;4973441;28;51031;-52
2023/04/14 08:59:42;;;;;;;;;8.00;6.50;;;;;-147.17;100.00;-15917.19;4971632;28;51165;-52
2023/04/14 09:02:10;;;;;;;;;6.00;6.00;;;;;-147.17;100.00;-15917.19;4971129;28;51240;-53
2023/04/14 09:04:36;;;;;;;;;5.75;5.75;;;;;-147.17;100.00;-15917.19;4958907;28;52592;-53
2023/04/14 09:07:02;;;;;;;;;8.00;6.25;;;;;-147.17;100.00;-15917.19;4966254;28;52530;-53
2023/04/14 09:09:29;;;;;;;;;4.50;4.00;;;;;-147.17;100.00;-15917.19;4972508;28;51268;-51
2023/04/14 09:11:56;;;;;;;;;10.00;8.00;;;;;-147.17;100.00;-15917.19;4973598;28;51453;-51
2023/04/14 09:14:22;;;;;;;;;6.00;4.75;;;;;-147.17;100.00;-15917.19;4972889;28;51337;-51
2023/04/14 09:16:52;;;;;;;;;7.50;6.00;;;;;-147.17;100.00;-15917.19;4961217;28;51307;-52
2023/04/14 09:19:19;;;;;;;;;7.25;6.50;;;;;-147.17;100.00;-15917.19;4960891;28;51166;-52
2023/04/14 09:21:45;;;;;;;;;5.25;5.25;;;;;-147.17;100.00;-15917.19;4964763;28;51182;-54
2023/04/14 09:24:11;;;;;;;;;9.50;9.50;;;;;-147.17;100.00;-15917.19;4967765;28;51993;-52
2023/04/14 09:26:36;;;;;;;;;5.50;5.25;;;;;-147.17;100.00;-15917.19;4967082;28;51069;-54
2023/04/14 09:29:02;;;;;;;;;4.25;4.00;;;;;-147.17;100.00;-15917.19;4964365;28;50872;-55
2023/04/14 09:31:27;;;;;;;;;5.25;5.25;;;;;-147.17;100.00;-15917.19;4973019;28;51053;-53
2023/04/14 09:33:53;;;;;;;;;6.00;5.00;;;;;-147.17;100.00;-15917.19;4971559;28;51094;-51
2023/04/14 09:36:23;;;;;;;;;5.00;5.00;;;;;-147.17;100.00;-15917.19;4966150;28;51070;-52
2023/04/14 09:38:50;;;;;;;;;4.00;4.00;;;;;-147.17;100.00;-15917.19;4965736;28;50885;-51
2023/04/14 09:41:17;;;;;;;;;5.00;4.25;;;;;-147.17;100.00;-15917.19;4972873;28;51461;-52
2023/04/14 09:43:42;;;;;;;;;3.25;2.50;;;;;-147.17;100.00;-15917.19;4972232;28;51324;-51
2023/04/14 09:46:09;;;;;;;;;1.75;1.75;;;;;-147.17;100.00;-15917.19;4971697;28;50981;-50
2023/04/14 09:48:38;;;;;;;;;4.25;3.50;;;;;-147.17;100.00;-15917.19;4971887;28;51160;-54
2023/04/14 09:51:08;;;;;;;;;5.00;5.00;;;;;-147.17;100.00;-15917.19;4966477;28;51065;-54
2023/04/14 09:53:36;;;;;;;;;3.50;3.50;;;;;-147.17;100.00;-15917.19;4971696;28;53524;-53
2023/04/14 09:56:04;;;;;;;;;4.00;4.00;;;;;-147.17;100.00;-15917.19;4982189;28;51114;-52
2023/04/14 09:58:38;;;;;;;;;5.00;4.00;;;;;-147.17;100.00;-15917.19;4970219;28;51322;-54
2023/04/14 10:01:05;;;;;;;;;2.00;2.00;;;;;-147.17;100.00;-15917.19;4971036;28;51356;-53
2023/04/14 10:03:36;;;;;;;;;4.25;4.00;;;;;-147.17;100.00;-15917.19;4957523;28;51791;-53
2023/04/14 10:06:05;;;;;;;;;6.00;3.75;;;;;-147.17;100.00;-15917.19;4952923;28;51141;-52
2023/04/14 10:08:38;;;;;;;;;4.00;3.00;;;;;-147.17;100.00;-15917.19;4959876;28;51067;-52
2023/04/14 10:11:15;;;;;;;;;2.25;2.25;;;;;-147.17;100.00;-15917.19;4971213;28;51394;-51
2023/04/14 10:13:41;;;;;;;;;3.25;2.75;;;;;-147.17;100.00;-15917.19;4972391;28;51883;-51
2023/04/14 10:16:07;;;;;;;;;2.50;2.50;;;;;-147.17;100.00;-15917.19;4972317;28;51117;-51
2023/04/14 10:18:33;;;;;;;;;5.00;4.00;;;;;-147.17;100.00;-15917.19;4966572;28;51193;-52
2023/04/14 10:21:00;;;;;;;;;3.50;3.50;;;;;-147.17;100.00;-15917.19;4972568;28;51236;-52
2023/04/14 10:23:26;;;;;;;;;5.75;4.50;;;;;-147.17;100.00;-15917.19;4972714;28;51069;-52
2023/04/14 10:25:53;;;;;;;;;1.50;1.25;;;;;-147.17;100.00;-15917.19;4972581;28;50971;-52
2023/04/14 10:28:21;;;;;;;;;3.00;3.00;;;;;-147.17;100.00;-15917.19;4972336;28;51106;-52
2023/04/14 10:30:47;;;;;;;;;3.50;3.50;;;;;-147.17;100.00;-15917.19;4970253;28;50935;-53
2023/04/14 10:33:13;;;;;;;;;3.00;3.00;;;;;-147.17;100.00;-15917.19;4972322;28;52086;-53
2023/04/14 10:35:43;;;;;;;;;2.25;2.25;;;;;-147.17;100.00;-15917.19;4971774;28;51197;-54
2023/04/14 10:38:09;;;;;;;;;3.50;3.50;;;;;-147.17;100.00;-15917.19;4971925;28;50871;-54
2023/04/14 10:40:47;;;;;;;;;4.75;2.50;;;;;-147.17;100.00;-15917.19;4971124;28;51140;-54
2023/04/14 10:43:12;;;;;;;;;4.50;4.25;;;;;-147.17;100.00;-15917.19;4975277;28;51823;-53
2023/04/14 10:45:58;;;;;;;;;3.75;3.00;;;;;-147.17;100.00;-15917.19;4972875;28;51024;-54
2023/04/14 10:48:24;;;;;;;;;3.00;2.75;;;;;-147.17;100.00;-15917.19;4975113;28;51261;-54
2023/04/14 10:50:54;;;;;;;;;2.50;2.50;;;;;-147.17;100.00;-15917.19;4975874;28;50963;-53
2023/04/14 10:53:24;;;;;;;;;3.50;2.50;;;;;-147.17;100.00;-15917.19;4975119;28;52696;-53
2023/04/14 10:55:52;;;;;;;;;4.00;3.25;;;;;-147.17;100.00;-15917.19;4978916;28;51179;-54
2023/04/14 10:58:19;;;;;;;;;5.75;4.50;;;;;-147.17;100.00;-15917.19;4973105;28;51093;-53
2023/04/14 11:00:45;;;;;;;;;4.75;3.00;;;;;-147.17;100.00;-15917.19;4974592;28;50868;-54